You are not logged in, Click here to log in
機場資訊:VMMC Welcome to Taiwan Airways 台灣虛擬航空
ICAO: VMMC Country: 澳門
Latitude: 22.1578 Longitude: 113.576
Total Arrivals: 48 Total Departures: 55
Latest Arrival: BR811 (RCTP-VMMC)CHU. CHUHAO Latest Departure: IT302 (VMMC-RCTP)CHU. CHUHAO
Scenery:
METAR : VMMC 112000Z 08012KT 040V110 9999 FEW020 23/19 Q1014 NOSIG

澳門國際機場MFM

You are accessing this site from IP address 18.206.194.210. Virtual Airline. CMS by phpVMS.Website designed by Zumeweb and edited by Theo Bearman.
There is 0 User(s) Online: | and 18 Guest(s) Online.
All information on this site is for fight simulation purposes only. This site is for flight logging for pilots of Virtual Airline&模擬飛行論壇 FlySim only.